Time;durP1;ratioP1;P1;durP2;ratioP2;P2;SDS_P1;SDS_P2;PMS_P1;PMS_P2;Temp;Humidity;BMP_temperature;BMP_pressure;BME280_temperature;BME280_humidity;BME280_pressure;Samples;Min_cycle;Max_cycle;Signal;HPM_P1;HPM_P2
2023/01/29 00:01:03;;;;;;;7.57;3.83;;;;;;;7.81;66.07;99153.09;5095610;28;20187;-88
2023/01/29 00:03:29;;;;;;;5.67;3.23;;;;;;;7.69;67.20;99156.22;5094873;28;20544;-89
2023/01/29 00:05:54;;;;;;;10.57;3.57;;;;;;;7.66;67.14;99158.97;5111609;28;20181;-88
2023/01/29 00:08:20;;;;;;;7.47;3.53;;;;;;;7.47;68.23;99150.16;5095575;28;20281;-88
2023/01/29 00:10:46;;;;;;;6.60;3.27;;;;;;;7.36;68.83;99163.63;5095616;28;20273;-88
2023/01/29 00:13:11;;;;;;;7.60;4.20;;;;;;;7.37;68.62;99159.25;5094420;28;20195;-89
2023/01/29 00:15:36;;;;;;;7.13;3.23;;;;;;;7.41;68.75;99156.50;5095351;28;20176;-89
2023/01/29 00:18:02;;;;;;;9.63;5.10;;;;;;;7.46;68.24;99166.75;5095608;28;20174;-88
2023/01/29 00:20:27;;;;;;;14.07;4.53;;;;;;;7.54;67.77;99172.50;5094228;28;20185;-89
2023/01/29 00:22:53;;;;;;;11.70;4.33;;;;;;;7.62;67.47;99175.66;5095532;28;20322;-89
2023/01/29 00:25:18;;;;;;;9.20;3.67;;;;;;;7.66;67.95;99172.00;5095165;28;20176;-88
2023/01/29 00:27:44;;;;;;;9.40;3.87;;;;;;;7.72;67.76;99176.97;5095392;28;20173;-88
2023/01/29 00:30:13;;;;;;;8.97;3.20;;;;;;;7.77;67.28;99182.88;5095561;28;20181;-88
2023/01/29 00:32:39;;;;;;;10.00;4.33;;;;;;;7.83;66.97;99187.84;5095257;28;20353;-89
2023/01/29 00:35:06;;;;;;;8.83;3.70;;;;;;;7.78;67.24;99179.31;5095006;28;20180;-89
2023/01/29 00:37:31;;;;;;;15.03;5.90;;;;;;;7.67;67.03;99183.28;5094969;28;20188;-88
2023/01/29 00:39:57;;;;;;;15.03;5.53;;;;;;;7.66;67.63;99177.22;5095194;28;20585;-89
2023/01/29 00:45:07;;;;;;;12.53;4.37;;;;;;;7.38;67.71;99172.25;5095608;28;20176;-89
2023/01/29 00:47:33;;;;;;;16.93;5.03;;;;;;;7.23;68.63;99172.84;5094082;28;20181;-88
2023/01/29 00:50:00;;;;;;;7.23;3.73;;;;;;;7.14;68.59;99174.94;5094652;28;20176;-89
2023/01/29 00:52:26;;;;;;;17.07;4.20;;;;;;;7.09;69.18;99176.88;5094387;28;20229;-88
2023/01/29 00:54:53;;;;;;;8.17;4.53;;;;;;;7.06;69.56;99179.59;5093904;28;20579;-89
2023/01/29 00:57:18;;;;;;;13.40;4.33;;;;;;;7.20;68.90;99182.56;5095093;28;20196;-89
2023/01/29 00:59:44;;;;;;;9.50;5.10;;;;;;;7.17;68.94;99185.25;5094770;28;20209;-89
2023/01/29 01:04:55;;;;;;;6.23;3.43;;;;;;;7.30;68.26;99176.94;5095002;28;20680;-89
2023/01/29 01:07:20;;;;;;;11.20;4.40;;;;;;;7.26;68.54;99177.94;5093376;28;20181;-89
2023/01/29 01:12:30;;;;;;;11.33;4.30;;;;;;;7.38;68.25;99189.66;5094491;28;20284;-88
2023/01/29 01:14:56;;;;;;;10.53;4.00;;;;;;;7.30;68.73;99184.75;5094161;28;20255;-89
2023/01/29 01:17:21;;;;;;;12.53;4.27;;;;;;;7.28;68.71;99188.31;5094656;28;20258;-89
2023/01/29 01:19:47;;;;;;;8.03;3.43;;;;;;;7.27;68.14;99189.22;5094433;28;20176;-89
2023/01/29 01:22:12;;;;;;;17.90;4.43;;;;;;;7.31;68.32;99186.41;5094292;28;20176;-89
2023/01/29 01:24:38;;;;;;;10.17;4.07;;;;;;;7.36;68.45;99194.09;5094043;28;20168;-88
2023/01/29 01:27:04;;;;;;;8.90;3.97;;;;;;;7.28;68.72;99183.97;5093351;28;20176;-88
2023/01/29 01:29:30;;;;;;;8.13;3.90;;;;;;;7.28;68.90;99191.78;5093304;28;20625;-88
2023/01/29 01:31:55;;;;;;;12.30;3.70;;;;;;;7.31;68.94;99199.47;5093171;28;20212;-88
2023/01/29 01:34:21;;;;;;;9.70;4.30;;;;;;;7.37;68.34;99191.41;5094411;28;20184;-88
2023/01/29 01:36:47;;;;;;;9.47;4.00;;;;;;;7.47;67.82;99204.94;5093694;28;20192;-88
2023/01/29 01:39:13;;;;;;;9.57;3.70;;;;;;;7.45;67.92;99201.53;5093843;28;20191;-88
2023/01/29 01:41:38;;;;;;;11.73;3.70;;;;;;;7.35;68.08;99203.66;5093774;28;20639;-88
2023/01/29 01:44:05;;;;;;;7.03;4.00;;;;;;;7.31;68.29;99196.84;5093729;28;20213;-88
2023/01/29 01:46:33;;;;;;;10.57;4.47;;;;;;;7.31;67.98;99206.47;5093692;28;20180;-88
2023/01/29 01:49:07;;;;;;;8.43;4.07;;;;;;;7.30;68.20;99199.53;5093606;28;20623;-88
2023/01/29 01:51:36;;;;;;;6.30;3.73;;;;;;;7.28;67.68;99198.75;5093545;28;20516;-88
2023/01/29 01:54:09;;;;;;;8.73;3.87;;;;;;;7.34;68.04;99201.09;5093493;28;20615;-88
2023/01/29 01:56:41;;;;;;;7.47;3.97;;;;;;;7.39;67.63;99200.00;5093449;28;20168;-89
2023/01/29 01:59:10;;;;;;;17.17;4.80;;;;;;;7.40;67.99;99204.34;5092478;28;20188;-89
2023/01/29 02:01:41;;;;;;;11.73;5.07;;;;;;;7.36;68.21;99205.34;5093695;28;20176;-89
2023/01/29 02:10:06;;;;;;;10.77;5.40;;;;;;;7.29;68.57;99208.25;5093550;28;20233;-89
2023/01/29 02:12:31;;;;;;;11.47;5.67;;;;;;;7.29;68.33;99214.31;5093048;28;20192;-89
2023/01/29 02:14:58;;;;;;;12.33;5.23;;;;;;;7.27;68.47;99215.28;5093723;28;20180;-89
2023/01/29 02:17:24;;;;;;;10.23;5.17;;;;;;;7.29;68.94;99195.22;5093146;28;20184;-89
2023/01/29 02:20:03;;;;;;;11.70;5.13;;;;;;;7.32;68.78;99208.13;5093157;28;20177;-89
2023/01/29 02:22:47;;;;;;;8.87;4.60;;;;;;;7.30;68.78;99209.97;5110168;28;20164;-90
2023/01/29 02:25:40;;;;;;;10.43;4.43;;;;;;;7.28;68.45;99212.63;5093057;28;20176;-89
2023/01/29 02:28:30;;;;;;;10.07;4.20;;;;;;;7.37;67.81;99214.03;5092961;28;20175;-89
2023/01/29 02:31:39;;;;;;;10.97;4.27;;;;;;;7.29;68.41;99213.47;5093198;28;20188;-89
2023/01/29 02:34:20;;;;;;;12.40;5.13;;;;;;;7.28;67.80;99215.25;5093264;28;20177;-90
2023/01/29 02:36:53;;;;;;;9.93;4.23;;;;;;;7.32;67.89;99223.78;5093085;28;20248;-90
2023/01/29 02:39:39;;;;;;;9.47;4.40;;;;;;;7.31;67.55;99222.09;5109533;28;20172;-89
2023/01/29 02:42:16;;;;;;;12.90;4.93;;;;;;;7.34;68.03;99221.97;5092752;28;20211;-90
2023/01/29 02:44:57;;;;;;;8.63;4.63;;;;;;;7.32;67.07;99218.56;5092901;28;20175;-89
2023/01/29 02:47:35;;;;;;;11.20;4.30;;;;;;;7.28;67.77;99217.84;5092919;28;20526;-90
2023/01/29 02:50:57;;;;;;;11.63;4.83;;;;;;;7.23;68.26;99224.16;5108854;28;20189;-89
2023/01/29 02:53:33;;;;;;;7.77;4.17;;;;;;;7.27;67.85;99220.50;5031012;28;20653;-89
2023/01/29 02:56:16;;;;;;;9.40;4.97;;;;;;;7.18;67.76;99226.06;5014571;28;20174;-89
2023/01/29 02:58:48;;;;;;;8.50;3.93;;;;;;;7.18;68.25;99231.28;5074482;28;20195;-89
2023/01/29 03:01:29;;;;;;;10.67;5.73;;;;;;;6.94;68.24;99233.03;5091802;28;20165;-89
2023/01/29 03:04:00;;;;;;;9.37;4.83;;;;;;;6.98;68.43;99233.75;5092975;28;20156;-89
2023/01/29 03:06:49;;;;;;;9.43;4.50;;;;;;;6.94;68.34;99238.25;5092998;28;20256;-89
2023/01/29 03:09:40;;;;;;;8.03;4.47;;;;;;;7.02;67.97;99231.00;5091687;28;20241;-89
2023/01/29 03:12:32;;;;;;;9.57;5.30;;;;;;;7.02;67.61;99240.56;5108864;28;20199;-89
2023/01/29 03:15:11;;;;;;;10.63;5.27;;;;;;;6.80;67.80;99235.28;5091932;28;20173;-88
2023/01/29 03:17:45;;;;;;;9.90;4.83;;;;;;;6.97;67.42;99243.31;5095578;28;20186;-88
2023/01/29 03:20:17;;;;;;;11.47;5.37;;;;;;;7.18;66.64;99242.53;5095769;28;20534;-88
2023/01/29 03:22:49;;;;;;;10.93;5.40;;;;;;;7.20;66.08;99245.09;5096273;28;20600;-89
2023/01/29 03:33:51;;;;;;;13.87;6.57;;;;;;;6.68;66.89;99254.78;5097009;28;20198;-88
2023/01/29 03:36:36;;;;;;;10.63;5.83;;;;;;;6.63;67.79;99258.47;5096775;28;20166;-88
2023/01/29 03:39:07;;;;;;;12.70;5.93;;;;;;;6.41;69.13;99263.56;5095960;28;20638;-88
2023/01/29 03:41:59;;;;;;;16.20;6.33;;;;;;;6.27;69.21;99265.75;5095947;28;20175;-88
2023/01/29 03:44:40;;;;;;;11.90;5.73;;;;;;;6.26;70.39;99266.69;5095012;28;20262;-87
2023/01/29 03:47:21;;;;;;;14.60;7.23;;;;;;;6.32;70.40;99266.47;5112044;28;20172;-87
2023/01/29 03:49:59;;;;;;;15.70;6.87;;;;;;;6.43;70.39;99269.56;5095463;28;20642;-88
2023/01/29 03:52:48;;;;;;;13.77;7.03;;;;;;;6.51;70.22;99274.50;5096399;28;20282;-88
2023/01/29 03:55:16;;;;;;;14.67;7.93;;;;;;;6.49;70.19;99271.97;5095733;28;20710;-88
2023/01/29 03:57:44;;;;;;;16.63;7.97;;;;;;;6.26;70.74;99274.50;5095085;28;20182;-88
2023/01/29 04:00:20;;;;;;;15.80;7.43;;;;;;;6.30;70.96;99270.88;5095464;28;20183;-88
2023/01/29 04:03:05;;;;;;;11.83;6.33;;;;;;;6.01;73.08;99274.44;5111700;28;20161;-88
2023/01/29 04:05:39;;;;;;;13.83;6.70;;;;;;;6.00;73.31;99272.72;5096427;28;20184;-89
2023/01/29 04:08:12;;;;;;;15.43;7.07;;;;;;;5.97;73.00;99279.78;5094852;28;20620;-88
2023/01/29 04:10:40;;;;;;;16.03;7.13;;;;;;;5.84;74.29;99281.03;5094510;28;20273;-89
2023/01/29 04:13:10;;;;;;;10.17;4.80;;;;;;;5.33;76.17;99281.72;5094404;28;20641;-88
2023/01/29 04:15:42;;;;;;;11.47;6.27;;;;;;;5.32;76.56;99274.78;5094672;28;20205;-89
2023/01/29 04:18:09;;;;;;;13.30;6.03;;;;;;;5.30;77.45;99289.59;5095994;28;20163;-89
2023/01/29 04:20:35;;;;;;;13.13;5.73;;;;;;;5.20;77.22;99293.34;5095615;28;20175;-89
2023/01/29 04:23:00;;;;;;;13.90;6.13;;;;;;;4.92;78.56;99297.63;5094498;28;20181;-89
2023/01/29 04:25:41;;;;;;;11.50;5.47;;;;;;;5.08;78.57;99304.09;5094217;28;20182;-88
2023/01/29 04:28:17;;;;;;;9.80;5.70;;;;;;;5.05;78.97;99305.91;5095016;28;20607;-88
2023/01/29 04:30:57;;;;;;;16.20;7.00;;;;;;;5.18;78.66;99302.94;5094415;28;20180;-88
2023/01/29 04:33:48;;;;;;;14.93;5.83;;;;;;;5.19;78.28;99301.19;5112006;28;20623;-88
2023/01/29 04:36:32;;;;;;;11.80;6.53;;;;;;;5.31;78.31;99309.50;5094376;28;20275;-88
2023/01/29 04:39:23;;;;;;;13.17;6.13;;;;;;;5.34;77.96;99317.22;5094002;28;20547;-88
2023/01/29 04:41:52;;;;;;;14.17;5.50;;;;;;;5.40;77.72;99313.56;5094783;28;20260;-89
2023/01/29 04:44:27;;;;;;;8.80;4.23;;;;;;;5.25;78.12;99321.78;5094077;28;20221;-88
2023/01/29 04:47:14;;;;;;;14.80;6.63;;;;;;;5.45;77.94;99317.72;5111735;28;20168;-89
2023/01/29 04:49:48;;;;;;;13.87;6.27;;;;;;;5.54;77.15;99320.06;5094009;28;20184;-90
2023/01/29 04:52:43;;;;;;;12.93;6.37;;;;;;;5.46;77.87;99316.84;5094944;28;20193;-89
2023/01/29 04:55:24;;;;;;;13.53;7.30;;;;;;;5.47;77.51;99326.34;5095243;28;20223;-89
2023/01/29 04:57:53;;;;;;;12.23;7.03;;;;;;;5.37;77.57;99327.50;5094820;28;20164;-89
2023/01/29 05:00:26;;;;;;;12.77;6.87;;;;;;;5.40;77.99;99332.59;5094979;28;20181;-89
2023/01/29 05:02:52;;;;;;;14.03;6.87;;;;;;;5.50;77.57;99328.84;5094811;28;20164;-89
2023/01/29 05:05:19;;;;;;;13.67;7.03;;;;;;;5.62;77.23;99329.38;5094493;28;20644;-89
2023/01/29 05:07:45;;;;;;;14.00;4.90;;;;;;;5.62;77.06;99331.97;5094411;28;20180;-89
2023/01/29 05:10:13;;;;;;;17.27;6.70;;;;;;;5.63;77.01;99337.16;5094578;28;20179;-88
2023/01/29 05:12:39;;;;;;;15.97;7.10;;;;;;;5.68;76.96;99334.41;5094250;28;20646;-88
2023/01/29 05:15:12;;;;;;;13.13;6.33;;;;;;;5.65;76.86;99337.09;5094264;28;20191;-88
2023/01/29 05:17:38;;;;;;;9.07;5.37;;;;;;;5.59;76.90;99339.00;5094773;28;20684;-89
2023/01/29 05:20:04;;;;;;;14.83;7.33;;;;;;;5.59;77.04;99344.19;5094136;28;20255;-89
2023/01/29 05:22:30;;;;;;;15.30;6.27;;;;;;;5.61;77.31;99346.72;5110444;28;20584;-88
2023/01/29 05:24:55;;;;;;;11.70;6.07;;;;;;;5.72;77.07;99346.41;5094011;28;20208;-88
2023/01/29 05:30:17;;;;;;;12.90;5.40;;;;;;;5.81;76.26;99351.34;5094239;28;20231;-88
2023/01/29 05:32:42;;;;;;;13.27;5.53;;;;;;;5.88;76.54;99352.91;5092978;28;20196;-89
2023/01/29 05:35:08;;;;;;;11.23;6.03;;;;;;;5.93;75.75;99358.81;5094143;28;20173;-89
2023/01/29 05:37:33;;;;;;;14.17;6.00;;;;;;;5.91;76.01;99351.06;5093306;28;20666;-89
2023/01/29 05:39:58;;;;;;;14.53;6.83;;;;;;;5.96;76.13;99358.72;5092661;28;20185;-89
2023/01/29 05:42:24;;;;;;;13.13;6.23;;;;;;;6.00;75.36;99360.34;5092691;28;20176;-88
2023/01/29 05:44:51;;;;;;;12.80;5.73;;;;;;;6.01;75.48;99367.22;5092940;28;20541;-89
2023/01/29 05:47:20;;;;;;;13.17;6.07;;;;;;;5.96;74.95;99359.56;5093898;28;20663;-89
2023/01/29 05:49:45;;;;;;;13.73;6.17;;;;;;;5.99;75.21;99363.84;5093937;28;20175;-89
2023/01/29 05:52:10;;;;;;;15.47;6.93;;;;;;;6.01;74.87;99367.22;5092523;28;20204;-89
2023/01/29 05:54:36;;;;;;;14.47;6.13;;;;;;;5.92;75.04;99378.75;5093558;28;20176;-89
2023/01/29 05:57:01;;;;;;;12.13;6.90;;;;;;;5.96;75.56;99379.53;5092565;28;20631;-89
2023/01/29 05:59:29;;;;;;;16.00;6.73;;;;;;;6.02;75.21;99379.34;5093975;28;20696;-89
2023/01/29 06:01:55;;;;;;;12.07;5.63;;;;;;;6.11;74.50;99384.25;5109426;28;20264;-89
2023/01/29 06:04:21;;;;;;;12.27;5.67;;;;;;;6.13;74.65;99385.09;5109335;28;20634;-88
2023/01/29 06:06:46;;;;;;;15.63;7.33;;;;;;;6.15;74.75;99378.09;5093558;28;20182;-89
2023/01/29 06:09:12;;;;;;;13.50;6.03;;;;;;;6.16;74.38;99384.97;5093300;28;20177;-88
2023/01/29 06:11:37;;;;;;;11.07;5.00;;;;;;;6.16;74.14;99385.84;5093202;28;20210;-89
2023/01/29 06:14:03;;;;;;;13.23;6.67;;;;;;;6.25;74.38;99386.44;5093269;28;20232;-89
2023/01/29 06:16:28;;;;;;;12.47;5.97;;;;;;;6.28;73.66;99396.78;5093514;28;20172;-89
2023/01/29 06:18:53;;;;;;;13.60;6.73;;;;;;;6.29;73.93;99399.31;5089675;28;20182;-89
2023/01/29 06:21:19;;;;;;;16.07;7.13;;;;;;;6.31;73.66;99400.13;5090953;28;20196;-89
2023/01/29 06:23:44;;;;;;;16.57;7.13;;;;;;;6.31;73.47;99400.13;5091304;28;20188;-89
2023/01/29 06:26:13;;;;;;;12.83;6.20;;;;;;;6.32;73.98;99404.44;5087810;28;20313;-88
2023/01/29 06:28:39;;;;;;;14.63;6.67;;;;;;;6.31;73.78;99407.94;5072784;28;20177;-89
2023/01/29 06:31:05;;;;;;;17.37;7.27;;;;;;;6.35;74.48;99409.53;5071889;28;20190;-89
2023/01/29 06:33:31;;;;;;;19.03;7.07;;;;;;;6.36;73.89;99408.66;5077950;28;20223;-89
2023/01/29 06:36:03;;;;;;;16.17;6.80;;;;;;;6.40;73.92;99412.00;5085416;28;20219;-90
2023/01/29 06:38:31;;;;;;;15.93;7.60;;;;;;;6.38;73.99;99412.06;5080608;28;20235;-89
2023/01/29 06:40:57;;;;;;;15.70;7.33;;;;;;;6.40;73.59;99423.25;5081762;28;20180;-89
2023/01/29 06:43:23;;;;;;;14.07;6.77;;;;;;;6.39;74.15;99421.59;5083406;28;20184;-90
2023/01/29 06:45:55;;;;;;;16.27;6.83;;;;;;;6.23;74.00;99422.94;5082739;28;20180;-89
2023/01/29 06:48:22;;;;;;;13.90;6.20;;;;;;;5.93;75.69;99426.44;5092850;28;20327;-89
2023/01/29 06:50:48;;;;;;;16.17;6.93;;;;;;;5.90;74.85;99431.72;5095368;28;20632;-88
2023/01/29 06:53:15;;;;;;;17.00;7.37;;;;;;;5.95;74.98;99433.31;5097028;28;20628;-89
2023/01/29 06:55:41;;;;;;;14.23;7.07;;;;;;;5.94;75.33;99426.41;5097091;28;20168;-89
2023/01/29 06:58:09;;;;;;;16.47;7.67;;;;;;;6.07;74.97;99432.09;5093195;28;20323;-86
2023/01/29 07:00:35;;;;;;;16.43;7.80;;;;;;;6.25;74.44;99436.75;5089509;28;20187;-86
2023/01/29 07:03:01;;;;;;;12.03;6.43;;;;;;;6.38;74.20;99434.63;5089857;28;20183;-86
2023/01/29 07:05:27;;;;;;;17.53;7.97;;;;;;;6.43;74.39;99441.41;5086935;28;20183;-87
2023/01/29 07:07:53;;;;;;;13.50;6.37;;;;;;;6.45;74.32;99450.00;5088480;28;20522;-86
2023/01/29 07:10:19;;;;;;;14.90;7.03;;;;;;;6.37;74.94;99446.78;5096423;28;20195;-86
2023/01/29 07:12:47;;;;;;;15.77;8.03;;;;;;;6.47;74.78;99449.97;5091834;28;20596;-86
2023/01/29 07:15:12;;;;;;;21.40;9.43;;;;;;;6.51;74.14;99447.22;5084620;28;20168;-86
2023/01/29 07:17:38;;;;;;;28.70;10.50;;;;;;;6.52;73.57;99448.09;5083201;28;20187;-86
2023/01/29 07:20:08;;;;;;;17.63;8.00;;;;;;;6.34;73.69;99454.69;5091703;28;20600;-87
2023/01/29 07:22:34;;;;;;;21.77;8.40;;;;;;;6.30;73.72;99460.03;5079664;28;20581;-86
2023/01/29 07:24:59;;;;;;;26.80;9.93;;;;;;;6.33;73.81;99462.56;5089417;28;20619;-85
2023/01/29 07:27:26;;;;;;;18.40;7.80;;;;;;;6.41;74.04;99460.56;5086210;28;20175;-86
2023/01/29 07:29:51;;;;;;;22.73;9.63;;;;;;;6.39;73.96;99455.44;5082149;28;20622;-86
2023/01/29 07:32:17;;;;;;;30.97;13.13;;;;;;;6.47;73.50;99455.19;5090573;28;20286;-86
2023/01/29 07:34:42;;;;;;;21.00;9.83;;;;;;;6.52;73.65;99456.75;5094268;28;20195;-87
2023/01/29 07:37:08;;;;;;;15.83;8.13;;;;;;;6.50;73.87;99461.13;5095031;28;20191;-85
2023/01/29 07:39:33;;;;;;;22.17;8.70;;;;;;;6.48;73.58;99452.53;5095951;28;20243;-84
2023/01/29 07:41:58;;;;;;;15.20;7.60;;;;;;;6.46;73.60;99459.53;5082300;28;20175;-85
2023/01/29 07:44:24;;;;;;;14.70;6.93;;;;;;;6.45;73.39;99460.41;5091949;28;20697;-84
2023/01/29 07:46:49;;;;;;;20.80;8.20;;;;;;;6.33;73.65;99460.81;5082074;28;20191;-87
2023/01/29 07:49:15;;;;;;;13.90;6.87;;;;;;;6.36;74.11;99463.31;5092868;28;20247;-86
2023/01/29 07:51:41;;;;;;;12.80;6.27;;;;;;;6.44;73.77;99450.94;5083541;28;20710;-87
2023/01/29 07:54:06;;;;;;;18.57;6.80;;;;;;;6.40;73.66;99470.13;5078637;28;20181;-87
2023/01/29 07:56:32;;;;;;;10.73;5.63;;;;;;;6.37;74.16;99465.00;5090691;28;20181;-87
2023/01/29 07:58:57;;;;;;;16.07;7.63;;;;;;;6.41;73.97;99460.56;5091094;28;20269;-87
2023/01/29 08:01:23;;;;;;;15.83;7.67;;;;;;;6.45;74.56;99469.97;5090581;28;20186;-87
2023/01/29 08:03:48;;;;;;;15.63;7.07;;;;;;;6.34;74.53;99466.88;5094679;28;20261;-87
2023/01/29 08:06:14;;;;;;;15.00;6.90;;;;;;;6.43;75.00;99470.03;5075469;28;20171;-87
2023/01/29 08:08:39;;;;;;;12.77;5.90;;;;;;;6.55;74.15;99472.25;5088767;28;20627;-87
2023/01/29 08:11:05;;;;;;;14.33;6.83;;;;;;;6.56;74.24;99471.38;5082473;28;20174;-86
2023/01/29 08:13:31;;;;;;;13.20;6.20;;;;;;;6.55;74.44;99474.84;5082139;28;20187;-87
2023/01/29 08:16:01;;;;;;;14.60;6.53;;;;;;;6.45;73.92;99472.59;5091604;28;20221;-87
2023/01/29 08:18:26;;;;;;;15.60;6.70;;;;;;;6.19;74.78;99474.22;5091815;28;20184;-86
2023/01/29 08:20:52;;;;;;;15.43;6.47;;;;;;;6.21;75.20;99468.97;5093395;28;20239;-87
2023/01/29 08:23:18;;;;;;;17.37;7.90;;;;;;;6.19;75.54;99481.19;5091706;28;20187;-86
2023/01/29 08:25:43;;;;;;;8.47;4.80;;;;;;;6.17;74.96;99488.19;5092947;28;20176;-87
2023/01/29 08:28:10;;;;;;;13.13;5.63;;;;;;;6.12;75.25;99475.31;5092675;28;20266;-88
2023/01/29 08:30:36;;;;;;;16.93;6.57;;;;;;;6.16;75.76;99487.31;5108348;28;20174;-87
2023/01/29 08:33:03;;;;;;;13.77;6.03;;;;;;;6.07;75.73;99487.63;5092869;28;20191;-87
2023/01/29 08:35:28;;;;;;;15.43;5.60;;;;;;;6.03;76.36;99480.78;5093543;28;20177;-87
2023/01/29 08:37:57;;;;;;;13.37;6.53;;;;;;;6.12;76.09;99485.72;5093932;28;20259;-87
2023/01/29 08:40:23;;;;;;;11.23;5.33;;;;;;;6.24;76.03;99492.31;5094957;28;20225;-87
2023/01/29 08:42:49;;;;;;;10.97;5.43;;;;;;;6.33;76.51;99491.19;5095007;28;20526;-87
2023/01/29 08:45:15;;;;;;;18.73;6.07;;;;;;;6.38;76.46;99495.38;5094925;28;20169;-87
2023/01/29 08:47:48;;;;;;;11.40;5.40;;;;;;;6.41;75.84;99500.50;5095105;28;20653;-86
2023/01/29 08:50:14;;;;;;;14.23;6.73;;;;;;;6.34;75.18;99495.50;5095055;28;20259;-87
2023/01/29 08:52:39;;;;;;;12.27;5.60;;;;;;;6.43;75.54;99505.63;5094999;28;20222;-86
2023/01/29 08:55:05;;;;;;;11.87;5.80;;;;;;;6.48;76.19;99494.19;5094690;28;20626;-87
2023/01/29 08:57:31;;;;;;;15.63;6.87;;;;;;;6.48;75.81;99494.19;5094670;28;20317;-87
2023/01/29 08:59:56;;;;;;;13.10;6.33;;;;;;;6.40;75.62;99500.50;5093574;28;20180;-86
2023/01/29 09:02:21;;;;;;;17.63;7.40;;;;;;;6.41;76.28;99503.09;5093558;28;20263;-87
2023/01/29 09:04:47;;;;;;;15.60;6.87;;;;;;;6.06;77.39;99501.50;5095057;28;20538;-87
2023/01/29 09:07:12;;;;;;;12.23;5.73;;;;;;;5.85;77.33;99493.44;5093418;28;20194;-87
2023/01/29 09:09:38;;;;;;;11.87;6.00;;;;;;;6.08;77.56;99488.44;5095219;28;20194;-86
2023/01/29 09:12:03;;;;;;;11.10;5.90;;;;;;;6.03;76.48;99498.13;5094216;28;20207;-86
2023/01/29 09:14:29;;;;;;;13.17;5.30;;;;;;;6.03;76.47;99500.72;5093293;28;20633;-86
2023/01/29 09:16:54;;;;;;;15.73;6.77;;;;;;;6.12;76.83;99495.28;5093250;28;20274;-86
2023/01/29 09:19:20;;;;;;;10.10;5.53;;;;;;;6.17;76.46;99498.59;5093195;28;20178;-87
2023/01/29 09:21:48;;;;;;;12.30;5.97;;;;;;;6.35;76.72;99497.19;5093187;28;20193;-86
2023/01/29 09:24:14;;;;;;;16.23;7.90;;;;;;;6.41;76.00;99492.69;5093959;28;20572;-87
2023/01/29 09:26:40;;;;;;;14.00;6.40;;;;;;;6.30;76.93;99486.94;5094092;28;20192;-86
2023/01/29 09:29:05;;;;;;;14.53;7.00;;;;;;;6.41;76.50;99487.47;5110650;28;20234;-86
2023/01/29 09:31:31;;;;;;;15.47;6.63;;;;;;;6.48;76.45;99483.78;5094201;28;20218;-87
2023/01/29 09:33:56;;;;;;;12.90;5.90;;;;;;;6.51;76.67;99486.28;5093923;28;20250;-86
2023/01/29 09:36:22;;;;;;;15.27;7.80;;;;;;;6.42;76.64;99480.50;5109889;28;20180;-86
2023/01/29 09:38:47;;;;;;;15.10;7.13;;;;;;;6.38;76.67;99484.94;5092772;28;20202;-86
2023/01/29 09:41:48;;;;;;;14.80;6.80;;;;;;;6.15;78.56;99479.59;5094263;28;20192;-86
2023/01/29 09:44:22;;;;;;;15.10;6.40;;;;;;;6.38;78.04;99477.13;5066900;28;20599;-87
2023/01/29 09:46:50;;;;;;;14.40;5.90;;;;;;;6.44;77.33;99476.97;5093967;28;20503;-86
2023/01/29 09:49:41;;;;;;;14.13;6.17;;;;;;;6.51;76.27;99488.88;5093724;28;20175;-87
2023/01/29 09:52:17;;;;;;;15.47;6.60;;;;;;;6.43;77.75;99485.66;5109520;28;20287;-87
2023/01/29 09:54:58;;;;;;;11.33;5.57;;;;;;;6.64;77.39;99476.34;5109555;28;20174;-87
2023/01/29 09:57:32;;;;;;;12.27;6.20;;;;;;;6.56;77.54;99475.72;5109817;28;20179;-87
2023/01/29 10:00:00;;;;;;;15.57;7.03;;;;;;;6.64;76.62;99474.59;5109505;28;20196;-86
2023/01/29 10:02:45;;;;;;;18.07;6.57;;;;;;;6.71;76.55;99476.09;5109434;28;20171;-86
2023/01/29 10:05:45;;;;;;;16.00;6.40;;;;;;;6.57;75.47;99474.84;5093728;28;20217;-86
2023/01/29 10:08:32;;;;;;;8.60;4.97;;;;;;;6.50;75.68;99473.31;5054968;28;20192;-86
2023/01/29 10:11:30;;;;;;;11.20;5.90;;;;;;;6.61;74.94;99466.88;5092303;28;20186;-87
2023/01/29 10:14:27;;;;;;;14.10;6.90;;;;;;;6.73;75.40;99465.66;5059158;28;20184;-86
2023/01/29 10:17:20;;;;;;;17.63;8.07;;;;;;;6.66;75.39;99464.09;5092877;28;20188;-86
2023/01/29 10:20:01;;;;;;;13.20;6.33;;;;;;;6.35;76.20;99459.00;5093416;28;20237;-87
2023/01/29 10:22:42;;;;;;;11.87;6.07;;;;;;;6.48;77.76;99462.94;5093655;28;20649;-86
2023/01/29 10:25:14;;;;;;;15.03;7.60;;;;;;;6.72;76.95;99454.38;5091684;28;20180;-86
2023/01/29 10:27:45;;;;;;;12.70;7.17;;;;;;;6.68;77.13;99451.91;5092365;28;20175;-86
2023/01/29 10:30:39;;;;;;;9.77;5.27;;;;;;;6.66;75.86;99451.09;5093341;28;20153;-87
2023/01/29 10:33:14;;;;;;;15.07;7.13;;;;;;;6.82;75.57;99447.94;5089583;28;20284;-86
2023/01/29 10:35:48;;;;;;;17.60;7.17;;;;;;;6.98;75.07;99455.25;5093054;28;20159;-87
2023/01/29 10:38:20;;;;;;;21.53;9.50;;;;;;;6.96;75.90;99444.03;5091898;28;20194;-87
2023/01/29 10:40:58;;;;;;;15.30;7.50;;;;;;;7.11;74.92;99435.72;5093006;28;20169;-87
2023/01/29 10:43:30;;;;;;;15.43;7.00;;;;;;;7.10;74.67;99436.63;5092560;28;20200;-87
2023/01/29 10:46:02;;;;;;;14.00;6.93;;;;;;;7.19;74.07;99436.28;5103354;28;20275;-87
2023/01/29 10:48:51;;;;;;;14.67;6.83;;;;;;;7.16;74.06;99437.25;5095648;28;20273;-87
2023/01/29 10:51:40;;;;;;;14.43;6.67;;;;;;;7.03;74.33;99429.91;5097842;28;20240;-87
2023/01/29 10:54:12;;;;;;;16.80;7.73;;;;;;;7.04;74.75;99429.00;5071341;28;20165;-87
2023/01/29 10:57:06;;;;;;;25.40;7.87;;;;;;;7.10;75.10;99419.22;5071555;28;20157;-87
2023/01/29 11:00:06;;;;;;;15.00;7.37;;;;;;;7.00;74.83;99419.56;5070828;28;20161;-86
2023/01/29 11:02:32;;;;;;;19.37;8.17;;;;;;;6.61;76.09;99417.38;5039245;28;20634;-86
2023/01/29 11:04:58;;;;;;;17.00;8.37;;;;;;;6.91;75.41;99418.16;5086041;28;20176;-87
2023/01/29 11:07:23;;;;;;;17.27;8.07;;;;;;;6.71;75.20;99413.56;5096317;28;20241;-87
2023/01/29 11:10:03;;;;;;;17.73;8.83;;;;;;;6.96;74.56;99404.94;5091177;28;20257;-88
2023/01/29 11:12:30;;;;;;;18.30;8.40;;;;;;;7.12;74.61;99403.53;5089208;28;20210;-87
2023/01/29 11:15:13;;;;;;;21.33;9.33;;;;;;;7.06;74.42;99401.13;5106512;28;20176;-87
2023/01/29 11:17:52;;;;;;;28.73;13.07;;;;;;;7.21;74.36;99398.84;5092163;28;20153;-87
2023/01/29 11:20:28;;;;;;;22.90;11.60;;;;;;;7.42;74.04;99392.88;5090476;28;20209;-86
2023/01/29 11:22:57;;;;;;;14.47;6.90;;;;;;;7.49;74.12;99392.66;5080987;28;20270;-87
2023/01/29 11:25:23;;;;;;;17.00;8.90;;;;;;;7.36;73.48;99389.66;5107913;28;20638;-87
2023/01/29 11:28:00;;;;;;;21.07;10.07;;;;;;;7.44;73.23;99391.06;5092258;28;20670;-87
2023/01/29 11:30:34;;;;;;;19.57;8.97;;;;;;;7.54;71.60;99391.59;5091939;28;20167;-87
2023/01/29 11:33:17;;;;;;;22.47;10.53;;;;;;;7.66;71.85;99388.53;5091903;28;20193;-87
2023/01/29 11:35:43;;;;;;;27.37;12.53;;;;;;;7.65;71.52;99381.59;5092156;28;20508;-87
2023/01/29 11:38:14;;;;;;;18.03;8.67;;;;;;;7.79;71.49;99381.94;5094635;28;20202;-87
2023/01/29 11:40:41;;;;;;;19.97;13.07;;;;;;;7.84;71.97;99384.38;5089043;28;20176;-87
2023/01/29 11:43:22;;;;;;;32.53;22.33;;;;;;;7.78;72.49;99375.00;5095777;28;20271;-88
2023/01/29 11:45:50;;;;;;;39.60;23.90;;;;;;;7.97;71.54;99376.03;5096872;28;20176;-87
2023/01/29 11:48:21;;;;;;;19.43;10.00;;;;;;;7.89;70.17;99372.84;5094978;28;20179;-87
2023/01/29 11:50:57;;;;;;;12.67;6.57;;;;;;;7.85;70.56;99378.25;5088391;28;20195;-87
2023/01/29 11:53:44;;;;;;;14.27;7.60;;;;;;;7.74;70.46;99377.81;5086717;28;20196;-88
2023/01/29 11:56:18;;;;;;;15.30;8.77;;;;;;;7.80;70.15;99368.00;5075684;28;20161;-87
2023/01/29 11:58:45;;;;;;;14.57;8.20;;;;;;;7.67;70.86;99369.38;5075838;28;20170;-87
2023/01/29 12:01:15;;;;;;;10.57;5.83;;;;;;;7.62;70.98;99370.44;5076020;28;20196;-87
2023/01/29 12:03:47;;;;;;;14.30;7.43;;;;;;;7.59;71.13;99363.59;5078436;28;20270;-87
2023/01/29 12:06:18;;;;;;;22.37;13.53;;;;;;;7.74;70.87;99363.00;5108193;28;20188;-87
2023/01/29 12:08:51;;;;;;;13.83;7.57;;;;;;;7.67;71.70;99364.16;5095906;28;20231;-87
2023/01/29 12:11:30;;;;;;;14.03;6.93;;;;;;;7.65;71.84;99358.13;5094781;28;20196;-87
2023/01/29 12:13:58;;;;;;;15.90;7.40;;;;;;;7.76;70.70;99360.31;5095832;28;20160;-86
2023/01/29 12:16:37;;;;;;;15.43;7.73;;;;;;;7.72;70.39;99350.94;5094960;28;20187;-86
2023/01/29 12:19:21;;;;;;;14.37;6.87;;;;;;;7.79;70.34;99361.06;5095464;28;20191;-87